Aeroporto :
LOGIN :

Iscrizione | Disclaimer

   EN    FR    IT 

 










Sommario :    VFR   VFR Marginale   IFR   IFR Intensivo   IFR Molto Intensivo
Visibilità : 
Base nubi : 
>= 8 km
>= 3000ft
5 / 8 km
1000 / 3000 ft
1500m / 5 km
500 / 1000 ft
800 / 1500m
200 / 500 ft
< 800m
< 200 ft
Simboli :   Temporali  Nebbia  Neve Forte  Precipitazioni Forti  Vento > 20 kt
SIGMETs :   Varie  Temporali  Ghiacco  Turbolenza  Onda orograficha  Ceneri Vulcaniche







- Altitudine del aeroporto : 13 ft
- Codice IATA : OST


EBOS - Oostend bruges Int.

ULTIMO METAR :
  • 240950Z 25013KT 9999 FEW008 SCT023 13/09 Q1017 TEMPO BKN008

METARs OBSOLETI :
  • 240920Z 25013KT 9999 FEW008 SCT022 13/10 Q1017 TEMPO BKN008
  • 240850Z 25013KT 9999 SCT008 BKN018 12/09 Q1017 TEMPO BKN008
  • 240820Z 23012KT 9999 BKN008 BKN018 11/09 Q1017 TEMPO 3500 -RADZ
  • 240750Z 22012KT 7000 -RA BKN008 BKN018 11/09 Q1017 TEMPO 3500 -RADZ
  • 240720Z 23011KT 7000 -DZ BKN008 BKN018 11/09 Q1017 TEMPO 3500 -RADZ

TAF TAF EBOS
Valido dal 24 a 06 ore il 25 a 12 ore UTC


240520Z 2406/2512 24013KT 9999 BKN015
TEMPO 2406/2415 SCT007 BKN013
PROB40
TEMPO 2408/2415 3500 -RADZ BKN008
BECMG 2419/2421 24015G25KT SCT008 BKN012
TEMPO 2421/2508 BKN005
Nessun NOTAM noto per questo aeroporto.



MetMap, La meteo Aeronautica in un colpo d'occhio ! - Copyright ORBIFLY Dicembre 2007 - Disclaimer

ORBIFLY MET'MAP TEAM :

Programmazione e sviluppo : Alexandra Zaïnal
Concezione e sviluppo : Baudouin d'Aumeries
Co-Programmazione e sviluppo : Marc-Olivier Méhu
Supporto tecnico e logistico : Manuel Goepfert
Aiuto per la traduzione : Arnaldo La Scala

Contatto : metmap@orbifly.com




FONTI E CREDITI :

   NOAA